Sulphur Bluff, Texas
Current Conditions -  °F | °C
As of 6:35 PM on Sunday 21 Dec 2014 (Local Time) from KSLR Reporting Station
Overcast Overcast  
Wind Chill: 51°   Ceiling: 2200
Heat Index: 51°   Visibility: 10mi
Dew Point: 44°   Wind: 8mph
Humidity: 77%   Direction: 160°SSE
Pressure: 29.91"   Gusts: NA
Location:  33.33°N, 95.4°W
Report Text: KSLR 220035Z AUTO 16007KT 10SM OVC022 11/07 A2991 RMK AO2 T01060067
Loading
Personal Weather Stations






























Interactive Weather Map New forecast layout! Learn more

10-Day Weather Forecast

Advertisements
Track Severe Weather on mobile